Milton, KS (67106)

3:02 PM CDT on September 20, 2014 (GMT -0500)
Dove Haven | Change Station
CLOSE
Current Station
Personal Weather Station
Location: Clearwater, KS
Elevation: 1394 ft
Nearby Weather Stations

Elev 1394 ft 37.56 °N, 97.52 °W | Updated 2 minutes ago

Partly Cloudy
Partly Cloudy
88.9 °F
Feels Like 91 °F
N
8.0
Wind Variable Wind from SSW
Gusts 12.0 mph

Today
High -- | Low -- °F
--% Chance of Precip.
Yesterday
High -- | Low -- °F
Precip. -- in
7:17 AM 7:30 PM
Waning Crescent, 10% visible
Pressure 29.91 in
Visibility 10.0 miles
Clouds Scattered Clouds 5500 ft
Heat Index 91 °F
Dew Point 66 °F
Humidity 47%
Rainfall 0.00 in
Snow Depth Not available.
UV 0.0 out of 12
Pollen 6.30 out of 12
Air Quality Not available.
Flu Activity Not available.
METAR KICT 201953Z 22014G18KT 10SM SCT055 33/16 A2996 RMK AO2 SLP128 T03280161

More Conditions Fewer Conditions

Pressure 29.91 in
Visibility 10.0 miles
Clouds Scattered Clouds 5500 ft
Heat Index 91 °F
Dew Point 66 °F
Humidity 47%
Rainfall 0.00 in
Snow Depth Not available.
UV 0.0 out of 12
Pollen 6.30 out of 12
Air Quality Not available.
Flu Activity Not available.
METAR KICT 201953Z 22014G18KT 10SM SCT055 33/16 A2996 RMK AO2 SLP128 T03280161

More Conditions Fewer Conditions

10-Day Weather Forecast

Almanac

Astronomy

Sep. 20, 2014 Rise Set
Actual Time 7:17 AM CDT 7:30 PM CDT
Civil Twilight 6:51 AM CDT 7:57 PM CDT
Nautical Twilight 6:20 AM CDT 8:27 PM CDT
Astronomical Twilight 5:49 AM CDT 8:58 PM CDT
Moon 4:00 AM CDT 5:32 PM CDT
Length of Visible Light 13h 05m
Length of Day
12h 13m
Tomorrow will be 2m 23s shorter.
Waning Crescent, 10% of the Moon is Illuminated
Today
Waning Crescent
Sep 24
New
Oct 1
First Quarter
Oct 8
Full
Oct 15
Last Quarter

Today's Extremes

State Highs State Lows

Community

WunderPhotos

Upload Photos

1,754,927 photos uploaded!

WunderBlogs® & News

Nearby

Snow Depth

Station Depth Elevation
No new snow has been reported.

Earthquake Activity

City Distance Mag. Time & Date
Medford, Oklahoma 42 miles 3.2 2:10 AM CDT
2014-09-20
Luther, Oklahoma 126 miles 2.7 4:47 PM CDT
2014-09-19
Guthrie, Oklahoma 112 miles 3.6 12:23 PM CDT
2014-09-19
Jones, Oklahoma 131 miles 2.8 1:13 AM CDT
2014-09-19
Minimum magnitude displayed is 2.5.

Coastal Water Temperatures

Place Temperature
No Stations Reporting

Nearby Weather Stations